createdAt,value
2022-09-20T00:02:55.885Z,9.48
2022-09-20T00:06:02.065Z,9.55
2022-09-20T00:09:05.865Z,9.56
2022-09-20T00:12:09.185Z,9.61
2022-09-20T00:15:11.777Z,9.63
2022-09-20T00:18:14.861Z,9.63
2022-09-20T00:21:19.697Z,9.60
2022-09-20T00:24:22.673Z,9.60
2022-09-20T00:27:25.392Z,9.60
2022-09-20T00:30:28.696Z,9.54
2022-09-20T00:33:50.024Z,9.49
2022-09-20T00:36:53.036Z,9.50
2022-09-20T00:39:55.662Z,9.46
2022-09-20T00:42:58.894Z,9.39
2022-09-20T00:46:03.029Z,9.38
2022-09-20T00:49:17.783Z,9.40
2022-09-20T00:52:20.737Z,9.38
2022-09-20T00:55:25.087Z,9.30
2022-09-20T00:58:29.283Z,9.27
2022-09-20T01:01:32.840Z,9.34
2022-09-20T01:04:39.120Z,9.32
2022-09-20T01:07:44.286Z,9.31
2022-09-20T01:10:47.404Z,9.30
2022-09-20T01:13:50.614Z,9.27
2022-09-20T01:16:56.562Z,9.32
2022-09-20T01:20:14.251Z,9.22
2022-09-20T01:23:51.852Z,9.11
2022-09-20T01:27:07.889Z,9.14
2022-09-20T01:30:21.928Z,9.08
2022-09-20T01:33:52.478Z,9.14
2022-09-20T01:37:05.041Z,9.13
2022-09-20T01:40:31.854Z,9.12
2022-09-20T01:43:53.003Z,9.19
2022-09-20T01:47:19.818Z,9.22
2022-09-20T01:50:51.067Z,9.30
2022-09-20T01:54:36.176Z,9.30
2022-09-20T01:58:03.805Z,9.29
2022-09-20T02:01:21.782Z,9.30
2022-09-20T02:04:40.534Z,9.25
2022-09-20T02:08:13.459Z,9.23
2022-09-20T02:11:21.540Z,9.19
2022-09-20T02:14:53.093Z,9.29
2022-09-20T02:18:29.810Z,9.26
2022-09-20T02:22:17.782Z,9.20
2022-09-20T02:25:40.254Z,9.16
2022-09-20T02:29:20.729Z,9.13
2022-09-20T02:32:29.528Z,9.03
2022-09-20T02:36:08.249Z,9.00
2022-09-20T02:39:47.629Z,9.01
2022-09-20T02:43:14.762Z,8.97
2022-09-20T02:46:54.790Z,8.80
2022-09-20T02:50:16.929Z,8.83
2022-09-20T02:54:03.366Z,8.83
2022-09-20T02:57:25.261Z,8.75
2022-09-20T03:00:53.777Z,8.73
2022-09-20T03:04:19.737Z,8.60
2022-09-20T03:07:30.208Z,8.59
2022-09-20T03:10:47.722Z,8.58
2022-09-20T03:14:23.237Z,8.57
2022-09-20T03:17:49.977Z,8.64
2022-09-20T03:21:26.959Z,8.48
2022-09-20T03:25:14.806Z,8.35
2022-09-20T03:28:50.568Z,8.31
2022-09-20T03:32:05.806Z,8.28
2022-09-20T03:35:39.645Z,8.20
2022-09-20T03:38:58.163Z,8.14
2022-09-20T03:42:29.270Z,8.22
2022-09-20T03:45:44.012Z,8.29
2022-09-20T03:49:05.758Z,8.38
2022-09-20T03:53:14.451Z,8.41
2022-09-20T03:56:42.698Z,8.40
2022-09-20T03:59:48.839Z,8.44
2022-09-20T04:03:19.239Z,8.28
2022-09-20T04:06:44.158Z,8.31
2022-09-20T04:10:14.573Z,8.34
2022-09-20T04:14:14.915Z,8.38
2022-09-20T04:17:33.549Z,8.34
2022-09-20T04:20:48.687Z,8.41
2022-09-20T04:24:22.810Z,8.42
2022-09-20T04:27:33.401Z,8.43
2022-09-20T04:30:44.158Z,8.47
2022-09-20T04:33:51.403Z,8.41
2022-09-20T04:37:22.922Z,8.50
2022-09-20T04:41:12.025Z,8.58
2022-09-20T04:44:47.243Z,8.51
2022-09-20T04:48:09.035Z,8.68
2022-09-20T04:51:30.817Z,8.68
2022-09-20T04:54:52.296Z,8.64
2022-09-20T04:58:12.409Z,8.76
2022-09-20T05:02:07.288Z,8.70
2022-09-20T05:05:45.079Z,8.79
2022-09-20T05:09:04.222Z,8.85
2022-09-20T05:12:17.821Z,8.88
2022-09-20T05:15:59.969Z,8.95
2022-09-20T05:19:26.542Z,8.97
2022-09-20T05:22:32.448Z,8.99
2022-09-20T05:25:41.304Z,9.25
2022-09-20T05:29:03.682Z,9.38
2022-09-20T05:32:18.457Z,9.41
2022-09-20T05:35:41.709Z,9.47
2022-09-20T05:39:19.121Z,9.58
2022-09-20T05:42:42.389Z,9.59
2022-09-20T05:46:03.242Z,9.70
2022-09-20T05:49:20.342Z,9.73
2022-09-20T05:52:47.086Z,9.76
2022-09-20T05:56:22.899Z,9.91
2022-09-20T06:00:04.492Z,9.92
2022-09-20T15:21:57.008Z,13.25
2022-09-20T15:25:02.373Z,13.16
2022-09-20T15:28:05.257Z,13.17
2022-09-20T15:31:10.334Z,13.30
2022-09-20T15:34:14.221Z,13.17
2022-09-20T15:37:17.354Z,13.32
2022-09-20T15:40:46.164Z,13.21
2022-09-20T15:43:50.368Z,13.10
2022-09-20T15:46:53.749Z,12.98
2022-09-20T15:50:18.139Z,12.82
2022-09-20T15:53:22.005Z,12.65
2022-09-20T15:56:46.958Z,12.60
2022-09-20T15:59:51.060Z,12.42
2022-09-20T16:02:54.165Z,12.38
2022-09-20T16:06:04.128Z,12.28
2022-09-20T16:09:20.624Z,12.33
2022-09-20T16:12:48.124Z,12.10
2022-09-20T16:15:59.939Z,12.11
2022-09-20T16:19:20.818Z,12.11
2022-09-20T16:22:24.700Z,12.11
2022-09-20T16:25:38.182Z,12.18
2022-09-20T16:28:46.517Z,12.01
2022-09-20T16:31:51.576Z,12.01
2022-09-20T16:34:55.312Z,12.01
2022-09-20T16:38:18.939Z,12.01
2022-09-20T16:41:26.161Z,12.13
2022-09-20T16:44:30.323Z,12.01
2022-09-20T16:47:33.160Z,12.04
2022-09-20T16:50:57.859Z,12.01
2022-09-20T16:54:12.766Z,11.90
2022-09-20T16:57:18.539Z,11.83
2022-09-20T17:00:22.060Z,11.71
2022-09-20T17:03:27.268Z,11.69
2022-09-20T17:06:29.963Z,11.69
2022-09-20T17:09:33.423Z,11.44
2022-09-20T17:12:41.943Z,11.45
2022-09-20T17:15:45.370Z,11.49
2022-09-20T17:18:55.050Z,11.35
2022-09-20T17:21:58.126Z,11.35
2022-09-20T17:25:02.171Z,11.31
2022-09-20T17:28:09.905Z,11.30
2022-09-20T17:31:48.733Z,11.17
2022-09-20T17:35:29.602Z,11.28
2022-09-20T17:38:34.544Z,11.32
2022-09-20T17:41:58.239Z,11.33
2022-09-20T17:45:01.358Z,11.14
2022-09-20T17:48:24.438Z,11.12
2022-09-20T17:51:29.506Z,11.17
2022-09-20T17:54:34.999Z,11.15
2022-09-20T17:57:37.874Z,11.10
2022-09-20T18:00:41.671Z,11.11
2022-09-20T18:03:46.963Z,10.97
2022-09-20T18:06:54.907Z,10.98
2022-09-20T18:09:58.150Z,10.88
2022-09-20T18:13:04.846Z,10.87
2022-09-20T18:16:11.148Z,10.88
2022-09-20T18:19:16.207Z,10.72
2022-09-20T19:28:55.143Z,9.79
2022-09-20T19:32:21.577Z,9.63
2022-09-20T19:35:51.630Z,9.63
2022-09-20T19:39:26.856Z,9.54
2022-09-20T19:43:09.061Z,9.59
2022-09-20T19:46:46.786Z,9.63
2022-09-20T19:49:56.097Z,9.49
2022-09-20T19:53:05.178Z,9.45
2022-09-20T19:56:21.790Z,9.42
2022-09-20T19:59:27.540Z,9.39
2022-09-20T20:02:50.590Z,9.44
2022-09-20T20:06:08.520Z,9.41
2022-09-20T20:09:32.217Z,9.47
2022-09-20T20:12:49.766Z,9.27
2022-09-20T20:16:04.546Z,9.30
2022-09-20T20:19:59.399Z,9.32
2022-09-20T20:23:56.807Z,9.34
2022-09-20T20:27:03.511Z,9.35
2022-09-20T20:30:07.049Z,9.21
2022-09-20T20:33:15.447Z,9.23
2022-09-20T20:36:18.575Z,9.37
2022-09-20T20:39:43.250Z,9.31
2022-09-20T20:43:02.669Z,9.32
2022-09-20T20:46:21.027Z,9.35
2022-09-20T20:49:43.718Z,9.46
2022-09-20T20:53:06.900Z,9.49
2022-09-20T20:56:30.845Z,9.56
2022-09-20T20:59:34.049Z,9.45
2022-09-20T21:03:01.355Z,9.40
2022-09-20T21:06:05.078Z,9.33
2022-09-20T21:09:12.577Z,9.42
2022-09-20T21:12:27.048Z,9.34
2022-09-20T21:15:49.818Z,9.33
2022-09-20T21:18:53.715Z,9.42
2022-09-20T21:22:16.280Z,9.52
2022-09-20T21:25:41.371Z,9.53
